Time;durP1;ratioP1;P1;durP2;ratioP2;P2;SDS_P1;SDS_P2;PMS_P1;PMS_P2;Temp;Humidity;BMP_temperature;BMP_pressure;BME280_temperature;BME280_humidity;BME280_pressure;Samples;Min_cycle;Max_cycle;Signal;HPM_P1;HPM_P2
2023/05/23 00:01:53;;;;;;;15.60;10.57;;;24.00;54.80;;;;;;5015400;28;20429;-84
2023/05/23 00:04:25;;;;;;;13.77;10.27;;;24.00;54.70;;;;;;5013094;28;21135;-84
2023/05/23 00:06:52;;;;;;;13.77;10.73;;;24.00;55.10;;;;;;5032717;28;20454;-85
2023/05/23 00:09:19;;;;;;;11.30;10.03;;;24.00;55.10;;;;;;5006174;28;20591;-83
2023/05/23 00:11:46;;;;;;;20.07;12.30;;;24.00;54.80;;;;;;5012156;28;20446;-83
2023/05/23 00:14:14;;;;;;;18.70;12.90;;;23.90;55.40;;;;;;5015411;28;20515;-84
2023/05/23 00:16:42;;;;;;;14.80;11.63;;;23.70;55.80;;;;;;5039068;28;20477;-85
2023/05/23 00:19:10;;;;;;;15.07;12.00;;;23.70;55.80;;;;;;5001532;28;20541;-84
2023/05/23 00:21:38;;;;;;;14.90;11.67;;;23.80;55.90;;;;;;5022033;28;20552;-85
2023/05/23 00:24:06;;;;;;;19.57;12.30;;;23.80;55.70;;;;;;5013079;28;20456;-85
2023/05/23 00:26:33;;;;;;;14.60;11.40;;;23.60;56.20;;;;;;5021356;28;20489;-85
2023/05/23 00:29:00;;;;;;;15.20;12.10;;;23.70;56.10;;;;;;5007526;28;20477;-84
2023/05/23 00:31:27;;;;;;;16.33;12.67;;;23.50;56.50;;;;;;5028292;28;20457;-84
2023/05/23 00:33:54;;;;;;;19.93;13.07;;;23.50;56.70;;;;;;5014365;28;21020;-84
2023/05/23 00:36:23;;;;;;;16.77;13.73;;;23.40;57.20;;;;;;5030517;28;20450;-84
2023/05/23 00:38:52;;;;;;;20.00;14.67;;;23.50;57.70;;;;;;5014367;28;20979;-84
2023/05/23 00:41:19;;;;;;;20.93;15.20;;;23.60;56.90;;;;;;5038390;28;20953;-84
2023/05/23 00:43:47;;;;;;;23.80;15.30;;;23.60;57.20;;;;;;5020755;28;20467;-85
2023/05/23 00:46:16;;;;;;;22.40;14.70;;;23.60;57.20;;;;;;5002733;28;20449;-83
2023/05/23 00:48:43;;;;;;;21.17;13.13;;;23.70;57.20;;;;;;5015394;28;20488;-84
2023/05/23 00:51:10;;;;;;;18.47;14.67;;;23.70;57.00;;;;;;5032197;28;20457;-84
2023/05/23 00:53:37;;;;;;;21.00;13.70;;;23.60;57.20;;;;;;5017857;28;21228;-83
2023/05/23 00:56:06;;;;;;;21.07;14.13;;;23.60;57.10;;;;;;5026661;28;20455;-84
2023/05/23 00:58:33;;;;;;;23.53;14.50;;;23.60;57.10;;;;;;5020046;28;20441;-85
2023/05/23 01:01:00;;;;;;;18.00;13.70;;;23.70;57.10;;;;;;5025640;28;21300;-84
2023/05/23 01:03:28;;;;;;;19.50;14.87;;;23.70;57.00;;;;;;5007503;28;20462;-85
2023/05/23 01:05:56;;;;;;;28.17;15.57;;;23.80;57.20;;;;;;5033410;28;20477;-84
2023/05/23 01:08:23;;;;;;;21.13;14.40;;;23.80;57.10;;;;;;5018270;28;20936;-85
2023/05/23 01:10:51;;;;;;;22.17;15.37;;;23.70;57.30;;;;;;5009082;28;20444;-84
2023/05/23 01:13:28;;;;;;;17.03;13.70;;;23.60;57.30;;;;;;5035909;28;20473;-85
2023/05/23 01:16:03;;;;;;;23.50;17.00;;;23.70;57.30;;;;;;5040973;28;21039;-84
2023/05/23 01:18:37;;;;;;;21.27;14.53;;;23.70;57.40;;;;;;5008337;28;21118;-84
2023/05/23 01:21:07;;;;;;;23.00;15.90;;;23.70;57.20;;;;;;5003634;28;20483;-83
2023/05/23 01:24:07;;;;;;;24.73;16.00;;;23.70;57.00;;;;;;5018883;28;20469;-83
2023/05/23 01:26:52;;;;;;;20.90;16.10;;;23.70;57.00;;;;;;5012434;28;20460;-84
2023/05/23 01:29:25;;;;;;;23.90;15.83;;;23.70;56.80;;;;;;5050829;28;20530;-84
2023/05/23 01:31:54;;;;;;;23.17;16.07;;;23.60;56.70;;;;;;5004374;28;20994;-84
2023/05/23 01:34:22;;;;;;;26.23;18.30;;;23.60;57.20;;;;;;5001705;28;20543;-84
2023/05/23 01:36:53;;;;;;;25.00;17.50;;;23.50;57.80;;;;;;5030968;28;20444;-83
2023/05/23 01:39:20;;;;;;;32.37;20.63;;;23.60;57.90;;;;;;5018280;28;20433;-84
2023/05/23 01:41:48;;;;;;;29.50;20.00;;;23.50;57.90;;;;;;5017558;28;20453;-83
2023/05/23 01:44:16;;;;;;;24.77;19.50;;;23.50;58.40;;;;;;5027246;28;20535;-83
2023/05/23 01:46:45;;;;;;;25.97;18.67;;;23.50;58.40;;;;;;5021575;28;20461;-83
2023/05/23 01:49:13;;;;;;;28.97;20.40;;;23.50;58.40;;;;;;5017656;28;20477;-84
2023/05/23 01:51:41;;;;;;;25.40;18.17;;;23.30;58.60;;;;;;5023894;28;20456;-84
2023/05/23 01:54:09;;;;;;;29.47;19.47;;;23.20;59.50;;;;;;5018096;28;20469;-85
2023/05/23 01:56:36;;;;;;;28.97;17.93;;;23.20;59.50;;;;;;5006791;28;20820;-85
2023/05/23 01:59:03;;;;;;;26.43;18.37;;;23.20;59.40;;;;;;5025016;28;20464;-84
2023/05/23 02:01:30;;;;;;;27.70;19.10;;;23.30;59.10;;;;;;5023741;28;20456;-83
2023/05/23 02:03:59;;;;;;;36.13;20.70;;;23.30;58.90;;;;;;5014209;28;20487;-84
2023/05/23 02:06:26;;;;;;;26.30;18.53;;;23.40;58.90;;;;;;5028053;28;20446;-84
2023/05/23 02:08:53;;;;;;;26.87;18.27;;;23.40;58.80;;;;;;5023962;28;20469;-84
2023/05/23 02:11:21;;;;;;;29.23;19.10;;;23.40;58.60;;;;;;5032474;28;20445;-83
2023/05/23 02:13:49;;;;;;;30.10;19.53;;;23.40;58.70;;;;;;5017808;28;20836;-84
2023/05/23 02:16:16;;;;;;;21.97;17.13;;;23.40;59.30;;;;;;5008919;28;20549;-84
2023/05/23 02:18:45;;;;;;;29.87;18.97;;;23.20;59.20;;;;;;5016538;28;20475;-84
2023/05/23 02:21:14;;;;;;;28.70;18.83;;;23.20;59.50;;;;;;5031140;28;20446;-84
2023/05/23 02:23:41;;;;;;;24.23;16.67;;;23.10;59.50;;;;;;5019671;28;20472;-84
2023/05/23 02:26:08;;;;;;;25.83;17.87;;;23.10;59.60;;;;;;5017352;28;21134;-85
2023/05/23 02:28:36;;;;;;;24.70;17.27;;;23.10;59.90;;;;;;5030314;28;20457;-85
2023/05/23 02:31:03;;;;;;;26.63;16.87;;;23.10;59.60;;;;;;5023969;28;20447;-85
2023/05/23 02:33:30;;;;;;;27.20;16.93;;;23.10;59.60;;;;;;4998610;28;21037;-85
2023/05/23 02:35:57;;;;;;;25.07;16.20;;;23.00;59.30;;;;;;5041980;28;20535;-84
2023/05/23 02:38:25;;;;;;;27.80;18.43;;;23.10;59.30;;;;;;5023586;28;20450;-84
2023/05/23 02:40:53;;;;;;;24.70;17.30;;;23.00;59.30;;;;;;5023161;28;20438;-83
2023/05/23 02:43:20;;;;;;;23.23;17.03;;;23.00;59.40;;;;;;5002971;28;20464;-83
2023/05/23 02:45:47;;;;;;;27.63;18.00;;;23.00;59.30;;;;;;5007470;28;20468;-83
2023/05/23 02:48:14;;;;;;;24.97;16.40;;;23.10;59.20;;;;;;5013896;28;20458;-84
2023/05/23 02:50:41;;;;;;;24.90;17.33;;;23.10;59.10;;;;;;5015013;28;20500;-83
2023/05/23 02:53:08;;;;;;;31.50;18.60;;;23.10;59.00;;;;;;5023522;28;20458;-85
2023/05/23 02:55:37;;;;;;;27.03;17.67;;;23.00;59.10;;;;;;5015690;28;21135;-85
2023/05/23 02:58:04;;;;;;;24.37;18.30;;;22.70;60.00;;;;;;5032166;28;20501;-84
2023/05/23 03:00:32;;;;;;;22.33;16.30;;;22.60;60.30;;;;;;4997796;28;20938;-85
2023/05/23 03:02:59;;;;;;;23.70;16.20;;;22.70;60.00;;;;;;5012843;28;20487;-83
2023/05/23 03:05:26;;;;;;;29.43;18.33;;;22.60;59.80;;;;;;5014132;28;20469;-83
2023/05/23 03:07:54;;;;;;;24.97;17.10;;;22.50;59.90;;;;;;5013032;28;20460;-83
2023/05/23 03:10:21;;;;;;;24.47;17.23;;;22.50;59.90;;;;;;5034585;28;20832;-84
2023/05/23 03:12:49;;;;;;;23.63;16.70;;;22.50;59.80;;;;;;5024558;28;20948;-84
2023/05/23 03:15:17;;;;;;;30.60;17.57;;;22.50;59.70;;;;;;4999780;28;20866;-84
2023/05/23 03:17:45;;;;;;;24.00;17.03;;;22.60;59.50;;;;;;5023774;28;20453;-85
2023/05/23 03:20:13;;;;;;;24.07;16.80;;;22.70;59.30;;;;;;5015663;28;20445;-84
2023/05/23 03:22:42;;;;;;;25.30;16.90;;;22.70;59.20;;;;;;5031759;28;20480;-84
2023/05/23 03:25:09;;;;;;;27.10;17.83;;;22.80;59.00;;;;;;5025066;28;20454;-85
2023/05/23 03:27:36;;;;;;;23.70;16.50;;;22.60;59.30;;;;;;5019389;28;20449;-84
2023/05/23 03:30:06;;;;;;;23.87;16.70;;;22.60;59.50;;;;;;5018029;28;20535;-83
2023/05/23 03:32:33;;;;;;;20.13;15.70;;;22.50;59.30;;;;;;5004626;28;20469;-83
2023/05/23 03:35:00;;;;;;;25.47;16.73;;;22.60;59.30;;;;;;4999954;28;20461;-84
2023/05/23 03:37:27;;;;;;;26.37;16.37;;;22.30;59.40;;;;;;5047595;28;20450;-85
2023/05/23 03:39:53;;;;;;;24.47;16.90;;;22.30;59.70;;;;;;5024752;28;20448;-84
2023/05/23 03:42:20;;;;;;;23.00;16.17;;;22.30;59.90;;;;;;5042004;28;20589;-84
2023/05/23 03:44:47;;;;;;;21.03;15.20;;;22.30;59.90;;;;;;5013921;28;20587;-83
2023/05/23 03:47:16;;;;;;;21.70;15.70;;;22.40;59.60;;;;;;5031984;28;20836;-85
2023/05/23 03:49:45;;;;;;;21.10;15.23;;;22.50;59.30;;;;;;5004960;28;20481;-83
2023/05/23 03:52:12;;;;;;;23.97;16.10;;;22.50;58.70;;;;;;5015165;28;20477;-84
2023/05/23 03:54:40;;;;;;;23.73;16.33;;;22.60;58.80;;;;;;5015526;28;20472;-84
2023/05/23 03:57:08;;;;;;;21.17;14.60;;;22.70;58.60;;;;;;5016060;28;20440;-84
2023/05/23 03:59:36;;;;;;;17.57;13.80;;;22.70;58.60;;;;;;5016164;28;20482;-84
2023/05/23 04:02:06;;;;;;;24.47;16.93;;;22.80;58.30;;;;;;5030667;28;20519;-84
2023/05/23 04:04:34;;;;;;;19.80;16.43;;;22.70;58.50;;;;;;5022792;28;20541;-84
2023/05/23 04:07:01;;;;;;;21.93;16.17;;;22.70;58.30;;;;;;5029612;28;20453;-85
2023/05/23 04:09:29;;;;;;;26.73;17.07;;;22.70;58.80;;;;;;5045161;28;20476;-85
2023/05/23 04:11:57;;;;;;;21.83;16.00;;;22.60;59.10;;;;;;5038995;28;20551;-83
2023/05/23 04:14:25;;;;;;;21.73;14.97;;;22.50;59.20;;;;;;5023139;28;20979;-84
2023/05/23 04:16:52;;;;;;;23.73;15.57;;;22.50;59.20;;;;;;5006683;28;20449;-85
2023/05/23 04:19:19;;;;;;;20.57;15.57;;;22.60;59.20;;;;;;5017496;28;20446;-84
2023/05/23 04:21:47;;;;;;;24.80;15.97;;;22.60;59.10;;;;;;4996993;28;20511;-85
2023/05/23 04:24:16;;;;;;;22.63;15.23;;;22.70;58.70;;;;;;5014749;28;20487;-85
2023/05/23 04:26:43;;;;;;;21.07;16.57;;;22.70;59.00;;;;;;5017480;28;21007;-83
2023/05/23 04:29:11;;;;;;;23.67;16.23;;;22.70;59.10;;;;;;5029127;28;21225;-84
2023/05/23 04:31:39;;;;;;;20.77;16.00;;;22.80;58.90;;;;;;5006414;28;20457;-84
2023/05/23 04:34:06;;;;;;;21.93;16.63;;;22.80;59.10;;;;;;5034849;28;20449;-84
2023/05/23 04:36:39;;;;;;;23.03;17.57;;;22.70;59.30;;;;;;5008557;28;20483;-84
2023/05/23 04:39:07;;;;;;;23.23;16.70;;;22.60;59.60;;;;;;5011339;28;20523;-84
2023/05/23 04:41:39;;;;;;;25.20;18.10;;;22.40;60.10;;;;;;5010645;28;20485;-84
2023/05/23 04:44:19;;;;;;;26.03;18.30;;;22.30;60.50;;;;;;5031290;28;20449;-84
2023/05/23 04:47:07;;;;;;;26.23;18.73;;;22.10;61.00;;;;;;5029468;28;20454;-83
2023/05/23 04:49:54;;;;;;;23.30;17.50;;;21.90;61.90;;;;;;5019720;28;20471;-84
2023/05/23 04:52:21;;;;;;;28.00;17.57;;;22.10;61.70;;;;;;5020855;28;20476;-84
2023/05/23 04:54:49;;;;;;;26.40;18.20;;;22.20;60.90;;;;;;5020137;28;20445;-84
2023/05/23 04:57:16;;;;;;;27.67;17.07;;;22.40;61.00;;;;;;5014537;28;20457;-83
2023/05/23 04:59:43;;;;;;;28.00;19.10;;;22.50;60.70;;;;;;5003984;28;20893;-84
2023/05/23 05:02:10;;;;;;;27.53;17.67;;;22.50;60.30;;;;;;5030783;28;20465;-85
2023/05/23 05:04:38;;;;;;;22.00;17.00;;;22.50;60.20;;;;;;4996767;28;20812;-83
2023/05/23 05:07:06;;;;;;;23.57;17.83;;;22.60;61.00;;;;;;5033235;28;20458;-84
2023/05/23 05:09:33;;;;;;;21.20;16.50;;;22.70;60.20;;;;;;5012552;28;20564;-82
2023/05/23 05:12:02;;;;;;;21.37;17.67;;;22.80;59.80;;;;;;5023253;28;20565;-84
2023/05/23 05:14:30;;;;;;;29.37;18.63;;;22.80;59.50;;;;;;5022563;28;20544;-84
2023/05/23 05:16:57;;;;;;;24.90;16.90;;;22.80;59.10;;;;;;5032591;28;21378;-84
2023/05/23 05:19:28;;;;;;;24.20;17.40;;;22.70;59.30;;;;;;5006308;28;20450;-84
2023/05/23 05:21:56;;;;;;;20.30;15.17;;;22.50;58.30;;;;;;5006694;28;20458;-85
2023/05/23 05:24:23;;;;;;;20.70;14.90;;;22.30;58.70;;;;;;5008751;28;21096;-84
2023/05/23 05:26:50;;;;;;;18.70;14.07;;;21.90;58.90;;;;;;5014202;28;20449;-84
2023/05/23 05:29:19;;;;;;;22.17;15.90;;;21.80;58.90;;;;;;5023584;28;20465;-85
2023/05/23 05:31:46;;;;;;;21.33;13.87;;;21.70;58.70;;;;;;5049094;28;20458;-83
2023/05/23 05:34:13;;;;;;;19.93;14.47;;;21.50;58.70;;;;;;4998284;28;20588;-84
2023/05/23 05:36:44;;;;;;;16.57;13.53;;;21.20;58.60;;;;;;5023322;28;20449;-86
2023/05/23 05:39:12;;;;;;;19.90;14.97;;;20.90;59.10;;;;;;5005686;28;20970;-85
2023/05/23 05:41:41;;;;;;;15.30;12.33;;;20.80;59.70;;;;;;5035895;28;21030;-85
2023/05/23 05:44:09;;;;;;;14.60;12.57;;;20.70;59.10;;;;;;5015006;28;20461;-84
2023/05/23 05:46:38;;;;;;;16.60;13.17;;;20.60;59.70;;;;;;5037387;28;20450;-83
2023/05/23 05:49:05;;;;;;;16.93;12.03;;;20.80;59.50;;;;;;5002407;28;20441;-83
2023/05/23 05:51:31;;;;;;;16.77;12.77;;;20.70;59.20;;;;;;5016472;28;20472;-83
2023/05/23 05:53:59;;;;;;;15.43;11.70;;;20.60;59.80;;;;;;5036814;28;20492;-83
2023/05/23 05:56:26;;;;;;;17.30;12.47;;;20.50;59.20;;;;;;5019138;28;20470;-83
2023/05/23 05:58:53;;;;;;;12.93;10.37;;;20.60;58.80;;;;;;5015516;28;20549;-83
2023/05/23 06:01:22;;;;;;;15.13;11.30;;;20.40;58.60;;;;;;5022529;28;20462;-83
2023/05/23 06:03:50;;;;;;;15.90;11.27;;;20.30;59.00;;;;;;5022514;28;20516;-84
2023/05/23 06:06:18;;;;;;;13.90;10.93;;;20.10;58.90;;;;;;5009018;28;20460;-83
2023/05/23 06:08:45;;;;;;;13.83;9.97;;;20.00;59.60;;;;;;5014668;28;20465;-84
2023/05/23 06:11:16;;;;;;;11.07;8.80;;;19.90;59.00;;;;;;5006834;28;21045;-83
2023/05/23 06:13:43;;;;;;;13.60;10.63;;;20.00;59.10;;;;;;5026950;28;20484;-84
2023/05/23 06:16:10;;;;;;;13.30;10.00;;;20.30;58.70;;;;;;5030923;28;20461;-84
2023/05/23 06:18:38;;;;;;;14.07;10.57;;;20.30;58.00;;;;;;5005322;28;20473;-83
2023/05/23 06:21:06;;;;;;;12.40;9.23;;;20.40;57.70;;;;;;5006965;28;20445;-84
2023/05/23 06:23:35;;;;;;;12.10;9.67;;;20.50;57.50;;;;;;5034371;28;20462;-83
2023/05/23 06:26:02;;;;;;;13.17;10.37;;;20.30;57.20;;;;;;4994002;28;20453;-83
2023/05/23 06:28:30;;;;;;;9.87;8.63;;;20.40;57.20;;;;;;5030668;28;20458;-82
2023/05/23 06:30:57;;;;;;;12.37;9.27;;;20.40;57.40;;;;;;5038733;28;20475;-82
2023/05/23 06:33:23;;;;;;;9.57;8.43;;;20.30;57.30;;;;;;5022447;28;21173;-84
2023/05/23 06:35:51;;;;;;;10.50;8.40;;;20.40;57.50;;;;;;5014481;28;20453;-84
2023/05/23 06:38:19;;;;;;;9.83;8.00;;;20.50;57.20;;;;;;5016109;28;21128;-84
2023/05/23 06:40:46;;;;;;;14.10;8.00;;;20.50;56.20;;;;;;5002705;28;20449;-83
2023/05/23 06:43:14;;;;;;;10.93;8.90;;;20.30;56.60;;;;;;4997235;28;20456;-85
2023/05/23 06:45:52;;;;;;;9.17;7.87;;;20.30;57.40;;;;;;5019830;28;20584;-84
2023/05/23 06:48:19;;;;;;;13.20;8.90;;;20.50;57.00;;;;;;5032793;28;20445;-83
2023/05/23 06:50:47;;;;;;;10.60;7.80;;;20.40;57.40;;;;;;5000309;28;20574;-84
2023/05/23 06:53:15;;;;;;;10.47;7.70;;;20.60;57.70;;;;;;5016213;28;20505;-84
2023/05/23 06:55:43;;;;;;;9.43;7.20;;;20.70;56.60;;;;;;5032826;28;20515;-85
2023/05/23 06:58:14;;;;;;;10.83;7.93;;;20.60;56.30;;;;;;5023907;28;20502;-84
2023/05/23 07:00:41;;;;;;;8.07;6.63;;;20.70;55.20;;;;;;5022504;28;20464;-84
2023/05/23 07:03:32;;;;;;;7.40;6.43;;;20.50;55.50;;;;;;5008044;28;20553;-83
2023/05/23 07:06:02;;;;;;;8.63;7.30;;;20.40;55.60;;;;;;5015241;28;20445;-84
2023/05/23 07:08:30;;;;;;;7.70;6.47;;;20.60;55.40;;;;;;5004482;28;21207;-84
2023/05/23 07:11:01;;;;;;;7.37;6.17;;;20.70;55.20;;;;;;5009089;28;20469;-85
2023/05/23 07:13:36;;;;;;;6.70;5.67;;;20.70;55.00;;;;;;5012973;28;20575;-83
2023/05/23 07:16:04;;;;;;;6.63;5.10;;;20.70;54.50;;;;;;5028346;28;20818;-83
2023/05/23 07:18:33;;;;;;;8.77;5.40;;;21.00;54.90;;;;;;5026018;28;20560;-82
2023/05/23 07:21:00;;;;;;;5.87;5.00;;;21.20;54.20;;;;;;5021063;28;21504;-83
2023/05/23 07:23:27;;;;;;;6.40;5.17;;;20.90;54.30;;;;;;5020659;28;20495;-84
2023/05/23 07:25:54;;;;;;;5.80;4.43;;;20.80;54.50;;;;;;4995912;28;20453;-85
2023/05/23 07:28:27;;;;;;;9.67;5.07;;;20.90;53.60;;;;;;5039600;28;20452;-84
2023/05/23 07:30:56;;;;;;;5.77;5.17;;;20.90;53.70;;;;;;5010460;28;20561;-83
2023/05/23 07:33:24;;;;;;;6.60;5.33;;;20.90;53.70;;;;;;5029587;28;20480;-83
2023/05/23 07:35:53;;;;;;;6.53;5.67;;;20.80;54.00;;;;;;5003978;28;20678;-82
2023/05/23 07:38:20;;;;;;;7.17;5.73;;;20.70;54.30;;;;;;5012067;28;20445;-83
2023/05/23 07:40:47;;;;;;;9.37;6.73;;;20.40;54.70;;;;;;5028493;28;20441;-83
2023/05/23 07:43:14;;;;;;;7.10;5.57;;;20.20;55.60;;;;;;5012783;28;20466;-83
2023/05/23 07:45:43;;;;;;;8.17;6.40;;;20.40;56.10;;;;;;5001797;28;20491;-83
2023/05/23 07:48:11;;;;;;;7.00;6.27;;;20.40;56.00;;;;;;4993197;28;20535;-85
2023/05/23 07:50:40;;;;;;;12.33;6.23;;;20.30;56.10;;;;;;5014138;28;20482;-83
2023/05/23 07:53:07;;;;;;;7.90;6.87;;;20.40;56.40;;;;;;5028044;28;21251;-83
2023/05/23 07:55:35;;;;;;;7.47;5.87;;;20.60;56.00;;;;;;5013952;28;20537;-84
2023/05/23 07:58:02;;;;;;;12.53;5.87;;;20.90;55.40;;;;;;5029871;28;20437;-83
2023/05/23 08:00:29;;;;;;;9.43;7.10;;;21.10;54.70;;;;;;5015028;28;20448;-83
2023/05/23 08:03:05;;;;;;;7.30;6.23;;;21.20;54.80;;;;;;5023234;28;20638;-84
2023/05/23 08:05:38;;;;;;;7.97;6.50;;;21.30;54.40;;;;;;4999337;28;20441;-84
2023/05/23 08:08:05;;;;;;;5.90;5.03;;;21.50;54.80;;;;;;5015825;28;20476;-83
2023/05/23 08:10:33;;;;;;;6.53;5.70;;;21.80;53.40;;;;;;5034486;28;21012;-84
2023/05/23 08:13:09;;;;;;;6.60;6.00;;;21.90;53.40;;;;;;5022644;28;20555;-84
2023/05/23 08:15:41;;;;;;;5.57;5.07;;;21.80;53.00;;;;;;5020634;28;20452;-84
2023/05/23 08:18:16;;;;;;;5.83;4.37;;;21.80;53.00;;;;;;5041504;28;20461;-83
2023/05/23 08:20:43;;;;;;;3.73;3.43;;;21.70;51.50;;;;;;5023837;28;20453;-85
2023/05/23 08:23:11;;;;;;;4.10;3.70;;;21.50;52.60;;;;;;5008835;28;20468;-84
2023/05/23 08:25:38;;;;;;;4.27;3.87;;;21.50;52.70;;;;;;5028210;28;20545;-83
2023/05/23 08:28:06;;;;;;;4.27;3.60;;;21.50;51.90;;;;;;5008226;28;20458;-83
2023/05/23 08:30:59;;;;;;;6.07;3.80;;;21.40;51.50;;;;;;5019987;28;20464;-83
2023/05/23 08:33:28;;;;;;;3.30;3.00;;;21.50;52.20;;;;;;5017711;28;22679;-83
2023/05/23 08:35:58;;;;;;;3.70;3.40;;;21.80;51.20;;;;;;5004435;28;21628;-83
2023/05/23 08:38:26;;;;;;;5.10;3.17;;;21.90;52.00;;;;;;5040620;28;20456;-83
2023/05/23 08:41:20;;;;;;;4.00;3.10;;;22.20;51.00;;;;;;5016078;28;21554;-84
2023/05/23 08:43:50;;;;;;;3.40;3.10;;;22.50;50.70;;;;;;5020858;28;20476;-84
2023/05/23 08:46:23;;;;;;;4.47;2.80;;;22.70;50.00;;;;;;5001161;28;20457;-83
2023/05/23 08:48:53;;;;;;;6.60;3.47;;;23.10;48.70;;;;;;4999146;28;20452;-84
2023/05/23 08:51:24;;;;;;;2.87;2.60;;;23.30;48.20;;;;;;5002476;28;20460;-83
2023/05/23 08:53:52;;;;;;;3.27;2.97;;;23.30;48.10;;;;;;5020877;28;20512;-84
2023/05/23 08:56:20;;;;;;;2.93;2.60;;;23.20;47.80;;;;;;5028469;28;20453;-83
2023/05/23 08:58:51;;;;;;;3.90;3.10;;;23.10;47.80;;;;;;5003975;28;20495;-84
2023/05/23 09:01:20;;;;;;;3.13;2.80;;;23.00;49.00;;;;;;5017096;28;20449;-84
2023/05/23 09:03:52;;;;;;;2.73;2.53;;;22.90;49.20;;;;;;5009410;28;20457;-83
2023/05/23 09:06:25;;;;;;;4.07;3.00;;;22.70;48.60;;;;;;5000102;28;20544;-84
2023/05/23 09:08:52;;;;;;;4.90;4.13;;;22.60;49.10;;;;;;5008495;28;20444;-83
2023/05/23 09:11:23;;;;;;;2.97;2.67;;;22.40;49.10;;;;;;5021080;28;20472;-83
2023/05/23 09:13:50;;;;;;;3.30;3.00;;;22.40;50.40;;;;;;5004957;28;20567;-84
2023/05/23 09:16:18;;;;;;;4.03;3.20;;;22.40;49.90;;;;;;5035738;28;20452;-83
2023/05/23 09:18:51;;;;;;;6.10;3.90;;;22.10;49.50;;;;;;5024642;28;20548;-83
2023/05/23 09:21:21;;;;;;;9.00;2.97;;;22.00;49.90;;;;;;5044040;28;20471;-83
2023/05/23 09:24:11;;;;;;;4.10;3.20;;;22.00;49.90;;;;;;5031077;28;20449;-83
2023/05/23 09:26:39;;;;;;;3.50;3.10;;;21.90;51.30;;;;;;5041599;28;21041;-83
2023/05/23 09:29:06;;;;;;;4.17;3.20;;;22.20;51.20;;;;;;5010433;28;20445;-83
2023/05/23 09:31:34;;;;;;;2.80;2.60;;;22.20;50.20;;;;;;5019755;28;20481;-83
2023/05/23 09:34:04;;;;;;;3.60;3.23;;;22.20;50.00;;;;;;5006829;28;20472;-83
2023/05/23 09:36:33;;;;;;;4.33;2.97;;;22.30;50.20;;;;;;5006675;28;20456;-84
2023/05/23 09:39:04;;;;;;;3.40;3.10;;;22.30;50.40;;;;;;5029893;28;20544;-82
2023/05/23 09:41:34;;;;;;;3.93;2.93;;;22.30;49.70;;;;;;5035406;28;20963;-83
2023/05/23 09:44:07;;;;;;;2.93;2.73;;;22.30;50.40;;;;;;5024899;28;20472;-84
2023/05/23 09:46:37;;;;;;;4.50;3.27;;;22.50;51.30;;;;;;5019603;28;20443;-83
2023/05/23 09:49:15;;;;;;;4.63;3.20;;;22.40;51.10;;;;;;5035446;28;20448;-83
2023/05/23 09:51:42;;;;;;;3.57;3.27;;;22.20;50.20;;;;;;5026324;28;20480;-83
2023/05/23 09:54:10;;;;;;;9.53;3.27;;;22.10;51.30;;;;;;5008560;28;20449;-82
2023/05/23 09:56:42;;;;;;;4.17;2.73;;;22.00;51.20;;;;;;5010216;28;20453;-83
2023/05/23 09:59:15;;;;;;;6.50;3.30;;;21.90;52.10;;;;;;5034521;28;20452;-83
2023/05/23 10:01:47;;;;;;;4.23;3.10;;;21.90;52.40;;;;;;5033778;28;20492;-83
2023/05/23 10:04:20;;;;;;;4.53;3.17;;;22.10;52.10;;;;;;5008393;28;20456;-83
2023/05/23 10:06:52;;;;;;;3.67;3.37;;;22.30;52.60;;;;;;5033706;28;20456;-83
2023/05/23 10:09:21;;;;;;;3.83;3.33;;;22.40;51.00;;;;;;5050101;28;20448;-83
2023/05/23 10:12:24;;;;;;;3.27;2.97;;;22.40;50.80;;;;;;5025638;28;20483;-84
2023/05/23 10:14:54;;;;;;;5.13;3.20;;;22.40;50.80;;;;;;4995482;28;20471;-83
2023/05/23 10:17:28;;;;;;;3.53;3.20;;;22.50;52.40;;;;;;5033533;28;20548;-83
2023/05/23 10:20:01;;;;;;;4.20;2.90;;;22.40;50.90;;;;;;5006905;28;20485;-83
2023/05/23 10:22:29;;;;;;;4.53;3.70;;;22.40;52.00;;;;;;5039342;28;20560;-83
2023/05/23 10:24:56;;;;;;;6.40;3.20;;;22.60;51.50;;;;;;5048675;28;20519;-83
2023/05/23 10:27:23;;;;;;;4.73;2.90;;;22.80;52.20;;;;;;5031625;28;20434;-83
2023/05/23 10:29:51;;;;;;;4.07;3.60;;;22.80;51.40;;;;;;5048266;28;20440;-83
2023/05/23 10:32:18;;;;;;;4.00;3.33;;;23.00;51.20;;;;;;5034413;28;20469;-83
2023/05/23 10:34:56;;;;;;;3.20;2.90;;;23.10;51.10;;;;;;5025356;28;20452;-84
2023/05/23 10:37:29;;;;;;;4.13;2.90;;;23.30;49.90;;;;;;5006644;28;20452;-83
2023/05/23 10:40:02;;;;;;;3.33;2.90;;;23.20;50.60;;;;;;4997778;28;20445;-83
2023/05/23 10:42:39;;;;;;;4.00;2.87;;;23.20;49.50;;;;;;5039808;28;20461;-83
2023/05/23 10:45:17;;;;;;;3.30;3.00;;;23.40;49.90;;;;;;5050235;28;20445;-83
2023/05/23 10:47:46;;;;;;;3.20;2.90;;;23.50;49.20;;;;;;5028921;28;20441;-83
2023/05/23 10:50:14;;;;;;;3.23;2.93;;;23.40;49.00;;;;;;5014068;28;20461;-83
2023/05/23 10:52:43;;;;;;;2.77;2.57;;;23.10;49.50;;;;;;5016532;28;21183;-82
2023/05/23 10:55:16;;;;;;;3.40;3.10;;;22.90;50.50;;;;;;5034530;28;20442;-83
2023/05/23 10:57:44;;;;;;;5.40;3.33;;;22.90;50.40;;;;;;5030905;28;20481;-83
2023/05/23 11:00:15;;;;;;;3.33;3.00;;;23.00;50.40;;;;;;5029521;28;20541;-84
2023/05/23 11:02:55;;;;;;;3.77;3.00;;;23.20;50.00;;;;;;5000149;28;20560;-83
2023/05/23 11:05:23;;;;;;;3.77;3.47;;;23.20;49.30;;;;;;5046220;28;20461;-83
2023/05/23 11:08:12;;;;;;;4.03;3.73;;;23.00;50.70;;;;;;4996273;28;20444;-83
2023/05/23 11:10:52;;;;;;;4.93;3.90;;;23.00;50.40;;;;;;5029836;28;20464;-84
2023/05/23 11:13:21;;;;;;;4.33;3.93;;;22.90;50.10;;;;;;5039410;28;21065;-83
2023/05/23 11:15:48;;;;;;;4.50;3.70;;;23.10;50.80;;;;;;5029550;28;21059;-83
2023/05/23 11:18:23;;;;;;;8.23;3.50;;;23.40;49.60;;;;;;4996690;28;20568;-84
2023/05/23 11:20:55;;;;;;;3.80;3.33;;;23.50;49.30;;;;;;5010896;28;20807;-84
2023/05/23 11:23:24;;;;;;;3.40;3.10;;;23.40;48.30;;;;;;4997848;28;20484;-84
2023/05/23 11:25:52;;;;;;;4.30;3.80;;;23.50;49.10;;;;;;5046471;28;21325;-83
2023/05/23 11:28:20;;;;;;;3.97;3.23;;;23.40;49.20;;;;;;5020689;28;20515;-83
2023/05/23 11:30:51;;;;;;;4.97;4.40;;;23.70;50.10;;;;;;5033573;28;20457;-83
2023/05/23 11:33:19;;;;;;;3.57;3.23;;;23.80;49.10;;;;;;5004788;28;20476;-82
2023/05/23 11:35:47;;;;;;;3.93;3.07;;;23.60;49.30;;;;;;5046772;28;20503;-83
2023/05/23 11:38:15;;;;;;;3.00;2.80;;;23.60;48.90;;;;;;5052048;28;20456;-83
2023/05/23 11:40:45;;;;;;;3.43;3.00;;;23.50;48.90;;;;;;5021141;28;20545;-86
2023/05/23 11:43:15;;;;;;;4.40;3.40;;;23.50;48.60;;;;;;5007461;28;20476;-85
2023/05/23 11:45:42;;;;;;;3.67;3.37;;;23.20;49.50;;;;;;5005968;28;20445;-84
2023/05/23 11:48:10;;;;;;;3.63;3.33;;;23.10;50.20;;;;;;5018406;28;20441;-83
2023/05/23 11:50:45;;;;;;;4.53;3.37;;;23.20;50.10;;;;;;5029485;28;20441;-83
2023/05/23 11:53:15;;;;;;;4.00;3.67;;;22.90;51.10;;;;;;5022644;28;20475;-84
2023/05/23 11:55:51;;;;;;;4.27;3.87;;;22.90;51.00;;;;;;5017027;28;20489;-84
2023/05/23 11:58:19;;;;;;;4.00;3.70;;;22.50;50.70;;;;;;5028623;28;20539;-83
2023/05/23 12:00:46;;;;;;;4.93;4.43;;;22.10;52.10;;;;;;5022281;28;20453;-83
2023/05/23 12:03:13;;;;;;;3.77;3.43;;;22.20;52.30;;;;;;5014198;28;20464;-84
2023/05/23 12:05:43;;;;;;;3.43;3.13;;;22.10;52.80;;;;;;4998519;28;20446;-85
2023/05/23 12:08:14;;;;;;;4.40;4.00;;;22.30;52.60;;;;;;5013607;28;20444;-84
2023/05/23 12:10:52;;;;;;;4.20;3.90;;;22.60;52.90;;;;;;5007283;28;20467;-84
2023/05/23 12:13:19;;;;;;;3.93;3.53;;;22.90;52.00;;;;;;5033122;28;20488;-84
2023/05/23 12:15:46;;;;;;;4.10;3.70;;;23.00;51.90;;;;;;5037524;28;20973;-84
2023/05/23 12:18:14;;;;;;;3.80;3.50;;;23.00;51.20;;;;;;5050228;28;20453;-84
2023/05/23 12:20:41;;;;;;;5.20;3.20;;;22.90;51.00;;;;;;5000571;28;20970;-84
2023/05/23 12:23:08;;;;;;;3.23;3.03;;;22.90;51.50;;;;;;5022362;28;20537;-83
2023/05/23 12:25:40;;;;;;;3.60;3.30;;;22.90;51.70;;;;;;5006363;28;20449;-84
2023/05/23 12:28:09;;;;;;;3.50;2.80;;;22.90;51.10;;;;;;5017797;28;20447;-83
2023/05/23 12:30:42;;;;;;;4.37;3.97;;;22.90;51.80;;;;;;5014549;28;20445;-85
2023/05/23 12:33:10;;;;;;;3.80;3.50;;;22.80;50.90;;;;;;5014546;28;20560;-83
2023/05/23 12:35:42;;;;;;;3.37;3.00;;;22.80;51.70;;;;;;5029058;28;20460;-84
2023/05/23 12:38:09;;;;;;;3.40;3.20;;;22.80;51.30;;;;;;5048833;28;20474;-83
2023/05/23 12:40:36;;;;;;;5.20;3.40;;;23.00;51.40;;;;;;5013137;28;20456;-84
2023/05/23 12:43:03;;;;;;;3.67;3.37;;;23.00;51.00;;;;;;5015389;28;20828;-84
2023/05/23 12:45:36;;;;;;;3.47;3.20;;;23.00;51.40;;;;;;5028364;28;20455;-83
2023/05/23 12:48:03;;;;;;;4.50;3.87;;;23.30;51.30;;;;;;5013907;28;20449;-84